createdAt,value
2023-07-19T00:01:54.143Z,18.00
2023-07-19T00:07:27.082Z,17.80
2023-07-19T00:12:24.494Z,17.60
2023-07-19T00:17:31.941Z,17.50
2023-07-19T00:22:39.523Z,17.50
2023-07-19T00:27:47.968Z,17.80
2023-07-19T00:32:54.832Z,18.60
2023-07-19T00:38:01.938Z,18.40
2023-07-19T00:43:15.371Z,18.50
2023-07-19T00:48:21.866Z,18.60
2023-07-19T00:53:29.704Z,18.70
2023-07-19T00:58:36.829Z,19.40
2023-07-19T01:03:44.138Z,19.10
2023-07-19T01:08:52.608Z,19.10
2023-07-19T01:13:59.546Z,18.80
2023-07-19T01:19:06.595Z,18.70
2023-07-19T01:24:13.457Z,18.70
2023-07-19T01:29:20.642Z,18.90
2023-07-19T01:34:28.023Z,19.00
2023-07-19T01:39:34.896Z,19.00
2023-07-19T01:44:42.287Z,18.80
2023-07-19T01:49:49.256Z,18.70
2023-07-19T01:54:56.345Z,19.30
2023-07-19T02:00:03.727Z,19.50
2023-07-19T02:05:12.157Z,19.30
2023-07-19T02:10:19.232Z,19.20
2023-07-19T02:15:26.001Z,19.20
2023-07-19T02:20:32.830Z,19.30
2023-07-19T02:25:41.370Z,19.30
2023-07-19T02:30:49.733Z,19.40
2023-07-19T02:35:58.332Z,19.20
2023-07-19T02:41:05.434Z,19.20
2023-07-19T02:46:12.679Z,19.30
2023-07-19T02:51:19.822Z,19.10
2023-07-19T02:56:27.196Z,19.10
2023-07-19T03:01:34.423Z,19.20
2023-07-19T03:06:42.049Z,19.20
2023-07-19T03:11:49.415Z,19.20
2023-07-19T03:16:56.323Z,19.00
2023-07-19T03:22:03.564Z,19.10
2023-07-19T03:27:10.560Z,19.20
2023-07-19T03:32:17.383Z,19.50
2023-07-19T03:37:24.290Z,19.40
2023-07-19T03:42:31.155Z,19.30
2023-07-19T03:47:38.614Z,19.30
2023-07-19T03:52:45.778Z,19.40
2023-07-19T03:57:52.812Z,19.10
2023-07-19T04:02:59.765Z,19.20
2023-07-19T04:08:06.851Z,19.20
2023-07-19T04:13:15.330Z,19.00
2023-07-19T04:18:22.689Z,18.90
2023-07-19T04:23:29.965Z,19.00
2023-07-19T04:28:37.056Z,19.30
2023-07-19T04:33:44.375Z,19.40
2023-07-19T04:38:51.263Z,19.60
2023-07-19T04:43:58.287Z,19.50
2023-07-19T04:49:05.656Z,19.50
2023-07-19T04:54:13.167Z,19.60
2023-07-19T04:59:20.702Z,19.50
2023-07-19T05:04:27.785Z,19.20
2023-07-19T05:09:34.861Z,18.80
2023-07-19T05:14:43.300Z,18.80
2023-07-19T05:19:50.430Z,18.70
2023-07-19T05:24:57.452Z,18.70
2023-07-19T05:30:06.152Z,18.80
2023-07-19T05:35:12.973Z,18.90
2023-07-19T05:40:19.864Z,19.00
2023-07-19T05:45:27.527Z,19.00
2023-07-19T05:50:34.895Z,19.40
2023-07-19T05:55:42.658Z,19.50
2023-07-19T06:00:51.226Z,19.70
2023-07-19T06:05:58.286Z,19.70
2023-07-19T06:11:05.472Z,19.80
2023-07-19T06:16:12.791Z,20.00
2023-07-19T06:21:20.588Z,20.00
2023-07-19T06:26:27.744Z,19.90
2023-07-19T06:31:34.644Z,19.90
2023-07-19T06:36:41.553Z,19.90
2023-07-19T06:41:48.926Z,20.00
2023-07-19T06:46:56.304Z,20.30
2023-07-19T06:52:03.312Z,20.40
2023-07-19T06:57:10.899Z,20.60
2023-07-19T07:02:20.296Z,20.80
2023-07-19T07:07:27.311Z,20.90
2023-07-19T07:12:34.489Z,20.90
2023-07-19T07:17:42.325Z,20.70
2023-07-19T07:22:49.320Z,20.80
2023-07-19T07:27:56.448Z,20.90
2023-07-19T07:33:03.599Z,21.40
2023-07-19T07:38:11.538Z,22.00
2023-07-19T07:43:19.075Z,22.00
2023-07-19T07:48:26.383Z,22.20
2023-07-19T07:53:33.739Z,22.00
2023-07-19T07:58:40.517Z,21.80
2023-07-19T08:03:47.570Z,21.80
2023-07-19T08:08:54.976Z,22.30
2023-07-19T08:14:02.362Z,22.20
2023-07-19T08:19:09.255Z,21.80
2023-07-19T08:24:16.277Z,21.70
2023-07-19T08:29:23.214Z,21.80
2023-07-19T08:34:30.002Z,21.80
2023-07-19T08:39:37.991Z,21.80
2023-07-19T08:44:45.051Z,21.80
2023-07-19T08:49:53.940Z,22.50
2023-07-19T08:55:01.974Z,22.60
2023-07-19T09:00:10.607Z,22.60
2023-07-19T09:05:17.847Z,22.40
2023-07-19T09:10:24.744Z,22.10
2023-07-19T09:15:31.584Z,22.20
2023-07-19T09:20:39.158Z,22.30
2023-07-19T09:25:59.595Z,22.80
2023-07-19T09:31:23.932Z,23.50
2023-07-19T09:36:21.733Z,23.30
2023-07-19T09:41:29.094Z,23.80
2023-07-19T09:46:38.969Z,24.10
2023-07-19T09:51:47.129Z,25.70
2023-07-19T09:56:54.608Z,25.90
2023-07-19T10:02:01.474Z,26.70
2023-07-19T10:07:16.152Z,26.90
2023-07-19T10:12:26.228Z,27.60
2023-07-19T10:17:43.332Z,27.50
2023-07-19T10:23:00.264Z,27.70
2023-07-19T10:28:13.488Z,28.00
2023-07-19T10:33:30.228Z,27.60
2023-07-19T10:38:38.218Z,28.10
2023-07-19T10:43:48.048Z,27.40
2023-07-19T10:48:54.374Z,27.60
2023-07-19T10:54:02.205Z,27.30
2023-07-19T10:59:09.118Z,26.90
2023-07-19T11:04:16.677Z,25.80
2023-07-19T11:09:24.203Z,25.20
2023-07-19T11:14:33.167Z,24.90
2023-07-19T11:19:43.303Z,24.70
2023-07-19T11:24:51.288Z,24.60
2023-07-19T11:30:00.266Z,24.70
2023-07-19T11:35:07.555Z,25.20
2023-07-19T11:40:18.015Z,25.60
2023-07-19T11:45:28.197Z,25.00
2023-07-19T11:50:35.962Z,24.80
2023-07-19T11:55:43.492Z,24.70
2023-07-19T12:00:51.690Z,25.00
2023-07-19T12:05:58.707Z,25.40
2023-07-19T12:11:06.167Z,25.50
2023-07-19T12:16:13.096Z,25.20
2023-07-19T12:21:20.597Z,25.40
2023-07-19T12:31:37.255Z,26.40
2023-07-19T12:36:44.440Z,26.20
2023-07-19T12:41:53.141Z,25.80
2023-07-19T12:47:00.390Z,25.40
2023-07-19T12:52:07.990Z,25.00
2023-07-19T12:57:14.953Z,24.70
2023-07-19T13:02:22.388Z,24.10
2023-07-19T13:07:29.907Z,23.40
2023-07-19T13:12:37.259Z,22.90
2023-07-19T13:17:45.484Z,22.60
2023-07-19T13:22:52.538Z,22.50
2023-07-19T13:27:59.544Z,22.20
2023-07-19T13:33:07.522Z,22.00
2023-07-19T13:38:14.667Z,21.80
2023-07-19T13:43:22.052Z,21.80
2023-07-19T13:48:29.121Z,21.10
2023-07-19T13:53:36.136Z,20.30
2023-07-19T13:58:44.050Z,20.80
2023-07-19T14:03:52.085Z,20.70
2023-07-19T14:08:59.429Z,20.70
2023-07-19T14:14:06.470Z,20.80
2023-07-19T14:19:16.916Z,21.10
2023-07-19T14:24:22.428Z,21.40
2023-07-19T14:29:29.865Z,21.70
2023-07-19T14:34:39.077Z,22.00
2023-07-19T14:39:46.337Z,22.30
2023-07-19T14:44:53.116Z,22.90
2023-07-19T14:50:00.138Z,23.40
2023-07-19T14:55:08.372Z,23.70
2023-07-19T15:00:16.108Z,24.00
2023-07-19T15:05:23.200Z,24.00
2023-07-19T15:10:30.092Z,24.20
2023-07-19T15:15:37.170Z,24.60
2023-07-19T15:20:44.798Z,24.50
2023-07-19T15:25:51.566Z,24.80
2023-07-19T15:31:00.250Z,24.90
2023-07-19T15:36:08.425Z,24.80
2023-07-19T15:41:16.129Z,24.90
2023-07-19T15:46:23.172Z,25.10
2023-07-19T15:51:31.300Z,24.80
2023-07-19T15:56:38.903Z,24.80
2023-07-19T16:01:46.203Z,24.70
2023-07-19T16:06:53.115Z,24.80
2023-07-19T16:12:00.320Z,24.40
2023-07-19T16:17:07.823Z,24.30
2023-07-19T16:22:14.831Z,24.40
2023-07-19T16:27:22.009Z,24.30
2023-07-19T16:32:29.586Z,24.00
2023-07-19T16:37:37.054Z,23.80
2023-07-19T16:42:44.151Z,23.50
2023-07-19T16:47:51.208Z,23.30
2023-07-19T16:53:16.989Z,23.20
2023-07-19T16:58:23.957Z,23.00
2023-07-19T17:03:31.811Z,22.90
2023-07-19T17:08:38.846Z,22.80
2023-07-19T17:13:45.976Z,22.90
2023-07-19T17:19:09.635Z,23.00
2023-07-19T17:24:02.930Z,22.80
2023-07-19T17:29:10.205Z,22.80
2023-07-19T17:34:17.081Z,22.60
2023-07-19T17:39:24.359Z,22.50
2023-07-19T17:44:32.024Z,22.40
2023-07-19T17:49:39.094Z,22.30
2023-07-19T17:54:46.623Z,22.30
2023-07-19T17:59:54.027Z,22.20
2023-07-19T18:05:01.337Z,22.10
2023-07-19T18:10:10.584Z,22.00
2023-07-19T18:15:17.415Z,21.90
2023-07-19T18:20:24.335Z,21.80
2023-07-19T18:25:31.183Z,21.70
2023-07-19T18:30:38.666Z,21.70
2023-07-19T18:35:45.496Z,21.70
2023-07-19T18:40:52.384Z,21.60
2023-07-19T18:46:00.446Z,21.60
2023-07-19T18:51:07.261Z,21.50
2023-07-19T18:56:14.385Z,21.50
2023-07-19T19:01:22.118Z,21.40
2023-07-19T19:06:30.302Z,21.30
2023-07-19T19:11:39.656Z,21.10
2023-07-19T19:16:50.386Z,21.00
2023-07-19T19:21:58.683Z,21.20
2023-07-19T19:27:06.024Z,21.00
2023-07-19T19:32:14.231Z,21.20
2023-07-19T19:37:21.379Z,20.90
2023-07-19T19:42:30.679Z,20.80
2023-07-19T19:47:37.893Z,20.50
2023-07-19T19:52:58.786Z,20.50
2023-07-19T19:57:53.886Z,20.40
2023-07-19T20:08:09.648Z,20.10
2023-07-19T20:13:19.907Z,20.00
2023-07-19T20:18:47.249Z,20.00
2023-07-19T20:23:37.057Z,19.90
2023-07-19T20:28:46.596Z,20.00
2023-07-19T20:39:50.498Z,19.90
2023-07-19T20:44:11.621Z,20.00
2023-07-19T20:54:26.902Z,20.00
2023-07-19T20:59:34.525Z,20.00
2023-07-19T21:04:43.529Z,19.90
2023-07-19T21:09:50.331Z,19.90
2023-07-19T21:14:57.974Z,19.80
2023-07-19T21:20:05.906Z,20.00
2023-07-19T21:25:16.095Z,20.10
2023-07-19T21:30:21.509Z,20.00
2023-07-19T21:35:28.847Z,20.00
2023-07-19T21:40:36.714Z,20.00
2023-07-19T21:45:43.592Z,20.00
2023-07-19T21:50:50.422Z,19.60
2023-07-19T21:55:57.331Z,19.70
2023-07-19T22:01:04.520Z,19.90
2023-07-19T22:06:29.226Z,19.90
2023-07-19T22:11:36.742Z,20.00
2023-07-19T22:16:45.700Z,20.20
2023-07-19T22:21:52.840Z,20.20
2023-07-19T22:27:00.029Z,19.90
2023-07-19T22:32:07.685Z,19.80
2023-07-19T22:37:14.640Z,19.80
2023-07-19T22:42:21.917Z,19.70
2023-07-19T22:47:28.862Z,19.60
2023-07-19T22:52:36.126Z,19.60
2023-07-19T22:57:44.139Z,19.50
2023-07-19T23:02:51.233Z,19.30
2023-07-19T23:07:58.632Z,19.30
2023-07-19T23:13:05.741Z,19.50
2023-07-19T23:18:12.957Z,19.50
2023-07-19T23:23:19.864Z,19.50
2023-07-19T23:28:27.165Z,19.70
2023-07-19T23:33:33.960Z,19.80
2023-07-19T23:38:40.919Z,19.60
2023-07-19T23:43:48.485Z,19.50
2023-07-19T23:48:55.798Z,19.60
2023-07-19T23:54:03.023Z,19.60
2023-07-19T23:59:10.174Z,19.40
